This is the latest recevied weather packets stored in our database for station/object N5CNB. If no packets are shown the sender has not sent any weather packets the latest 10 day(s).
| Time | Temp. | Humidity | Pressure | Rain* | Wind** | Luminosity | Snow |
|---|---|---|---|---|---|---|---|
| 1778015704 | 28.33° C | 75% | 1007.5 hPa | 0 mm | - | - | - |
| 1778014805 | 28.33° C | 74% | 1007.5 hPa | 0 mm | - | - | - |
| 1778013905 | 27.78° C | 77% | 1007.7 hPa | 0 mm | - | - | - |
| 1778013005 | 27.78° C | 75% | 1008 hPa | 0 mm | - | - | - |
| 1778012107 | 28.33° C | 76% | 1008.2 hPa | 0 mm | - | - | - |
| 1778011214 | 28.33° C | 75% | 1008.3 hPa | 0 mm | - | - | - |
| 1778010306 | 28.33° C | 75% | 1008.6 hPa | 0 mm | - | - | - |
| 1778009407 | 27.78° C | 77% | 1008.8 hPa | 0 mm | - | - | - |
| 1778008507 | 27.22° C | 78% | 1008.9 hPa | 0 mm | - | - | - |
| 1778007606 | 27.22° C | 78% | 1009 hPa | 0 mm | - | - | - |
| 1778006706 | 27.78° C | 77% | 1009 hPa | 0 mm | - | - | - |
| 1778005807 | 26.67° C | 79% | 1009.1 hPa | 0 mm | - | - | - |
| 1778004908 | 26.67° C | 80% | 1009.2 hPa | 0 mm | - | - | - |
| 1778004009 | 26.67° C | 79% | 1009.2 hPa | 0 mm | - | - | - |
| 1778003105 | 27.22° C | 79% | 1009.4 hPa | 0 mm | - | - | - |
| 1778000414 | 26.67° C | 81% | 1009.8 hPa | 0 mm | - | - | - |
| 1777999505 | 26.11° C | 82% | 1009.9 hPa | 0 mm | - | - | - |
| 1777998608 | 25.56° C | 84% | 1009.8 hPa | 0 mm | - | - | - |
| 1777997709 | 25° C | 83% | 1009.9 hPa | 0 mm | - | - | - |
| 1777996818 | 24.44° C | 86% | 1009.8 hPa | 0 mm | - | - | - |
| 1777995913 | 23.89° C | 86% | 1009.8 hPa | 0 mm | - | - | - |
| 1777995010 | 24.44° C | 85% | 1009.7 hPa | 0 mm | - | - | - |
| 1777994109 | 23.89° C | 86% | 1009.7 hPa | 0 mm | - | - | - |
| 1777993208 | 23.89° C | 86% | 1009.6 hPa | 0 mm | - | - | - |
| 1777992312 | 23.33° C | 87% | 1009.5 hPa | 0 mm | - | - | - |
* Rain latest hour (hover to see other rain measurements)
** Current wind speed in m/s (hover to see current wind gust speed)